sensor_id;sensor_type;location;lat;lon;timestamp;P1;durP1;ratioP1;P2;durP2;ratioP2
13951;SDS011;39535;52.192;9.886;2023-04-03T00:00:15;3.00;;;1.70;;
13951;SDS011;39535;52.192;9.886;2023-04-03T00:02:42;2.87;;;1.60;;
13951;SDS011;39535;52.192;9.886;2023-04-03T00:05:08;3.33;;;1.20;;
13951;SDS011;39535;52.192;9.886;2023-04-03T00:07:36;3.67;;;1.20;;
13951;SDS011;39535;52.192;9.886;2023-04-03T00:10:03;4.00;;;1.47;;
13951;SDS011;39535;52.192;9.886;2023-04-03T00:12:30;3.63;;;1.97;;
13951;SDS011;39535;52.192;9.886;2023-04-03T00:14:57;2.00;;;1.17;;
13951;SDS011;39535;52.192;9.886;2023-04-03T00:17:23;2.40;;;1.20;;
13951;SDS011;39535;52.192;9.886;2023-04-03T00:19:50;2.93;;;1.10;;
13951;SDS011;39535;52.192;9.886;2023-04-03T00:22:16;2.17;;;1.27;;
13951;SDS011;39535;52.192;9.886;2023-04-03T00:24:44;2.93;;;1.30;;
13951;SDS011;39535;52.192;9.886;2023-04-03T00:27:10;4.10;;;1.20;;
13951;SDS011;39535;52.192;9.886;2023-04-03T00:29:37;3.07;;;1.27;;
13951;SDS011;39535;52.192;9.886;2023-04-03T00:32:03;5.00;;;1.17;;
13951;SDS011;39535;52.192;9.886;2023-04-03T00:34:30;7.30;;;1.30;;
13951;SDS011;39535;52.192;9.886;2023-04-03T00:36:57;2.10;;;1.20;;
13951;SDS011;39535;52.192;9.886;2023-04-03T00:39:23;1.77;;;1.20;;
13951;SDS011;39535;52.192;9.886;2023-04-03T00:41:51;2.83;;;1.30;;
13951;SDS011;39535;52.192;9.886;2023-04-03T00:44:19;2.83;;;1.10;;
13951;SDS011;39535;52.192;9.886;2023-04-03T00:46:47;2.30;;;1.00;;
13951;SDS011;39535;52.192;9.886;2023-04-03T00:49:13;3.10;;;1.23;;
13951;SDS011;39535;52.192;9.886;2023-04-03T00:51:40;4.93;;;1.30;;
13951;SDS011;39535;52.192;9.886;2023-04-03T00:54:06;2.50;;;1.03;;
13951;SDS011;39535;52.192;9.886;2023-04-03T00:56:34;2.93;;;1.20;;
13951;SDS011;39535;52.192;9.886;2023-04-03T00:59:04;1.37;;;0.83;;
13951;SDS011;39535;52.192;9.886;2023-04-03T01:01:34;3.27;;;1.20;;
13951;SDS011;39535;52.192;9.886;2023-04-03T01:04:01;2.60;;;1.00;;
13951;SDS011;39535;52.192;9.886;2023-04-03T01:06:29;1.07;;;0.90;;
13951;SDS011;39535;52.192;9.886;2023-04-03T01:08:58;3.03;;;1.20;;
13951;SDS011;39535;52.192;9.886;2023-04-03T01:11:26;2.33;;;1.17;;
13951;SDS011;39535;52.192;9.886;2023-04-03T01:13:52;2.40;;;1.30;;
13951;SDS011;39535;52.192;9.886;2023-04-03T01:16:20;2.10;;;1.17;;
13951;SDS011;39535;52.192;9.886;2023-04-03T01:18:47;2.90;;;1.10;;
13951;SDS011;39535;52.192;9.886;2023-04-03T01:21:21;4.40;;;1.40;;
13951;SDS011;39535;52.192;9.886;2023-04-03T01:24:09;3.17;;;1.43;;
13951;SDS011;39535;52.192;9.886;2023-04-03T01:26:46;2.37;;;1.40;;
13951;SDS011;39535;52.192;9.886;2023-04-03T01:29:12;2.27;;;1.40;;
13951;SDS011;39535;52.192;9.886;2023-04-03T01:31:48;3.70;;;1.37;;
13951;SDS011;39535;52.192;9.886;2023-04-03T01:34:15;3.13;;;1.33;;
13951;SDS011;39535;52.192;9.886;2023-04-03T01:36:42;3.37;;;1.37;;
13951;SDS011;39535;52.192;9.886;2023-04-03T01:39:08;2.67;;;1.50;;
13951;SDS011;39535;52.192;9.886;2023-04-03T01:41:35;3.97;;;1.40;;
13951;SDS011;39535;52.192;9.886;2023-04-03T01:44:01;2.30;;;1.23;;
13951;SDS011;39535;52.192;9.886;2023-04-03T01:46:29;2.83;;;1.47;;
13951;SDS011;39535;52.192;9.886;2023-04-03T01:48:56;2.57;;;1.23;;
13951;SDS011;39535;52.192;9.886;2023-04-03T01:51:23;3.47;;;1.63;;
13951;SDS011;39535;52.192;9.886;2023-04-03T01:53:49;1.77;;;1.50;;
13951;SDS011;39535;52.192;9.886;2023-04-03T01:56:16;2.00;;;1.20;;
13951;SDS011;39535;52.192;9.886;2023-04-03T01:58:43;1.97;;;1.20;;
13951;SDS011;39535;52.192;9.886;2023-04-03T02:01:09;2.63;;;1.27;;
13951;SDS011;39535;52.192;9.886;2023-04-03T02:03:35;3.47;;;1.30;;
13951;SDS011;39535;52.192;9.886;2023-04-03T02:06:04;1.97;;;1.50;;
13951;SDS011;39535;52.192;9.886;2023-04-03T02:08:30;3.73;;;1.63;;
13951;SDS011;39535;52.192;9.886;2023-04-03T02:10:57;2.43;;;1.23;;
13951;SDS011;39535;52.192;9.886;2023-04-03T02:13:23;2.17;;;1.17;;
13951;SDS011;39535;52.192;9.886;2023-04-03T02:15:50;2.83;;;1.30;;
13951;SDS011;39535;52.192;9.886;2023-04-03T02:18:16;1.93;;;1.20;;
13951;SDS011;39535;52.192;9.886;2023-04-03T02:20:43;2.80;;;1.27;;
13951;SDS011;39535;52.192;9.886;2023-04-03T02:23:11;4.97;;;1.50;;
13951;SDS011;39535;52.192;9.886;2023-04-03T02:25:37;1.73;;;1.50;;
13951;SDS011;39535;52.192;9.886;2023-04-03T02:28:04;3.10;;;0.80;;
13951;SDS011;39535;52.192;9.886;2023-04-03T02:30:31;2.10;;;1.37;;
13951;SDS011;39535;52.192;9.886;2023-04-03T02:32:57;3.43;;;1.20;;
13951;SDS011;39535;52.192;9.886;2023-04-03T02:35:23;1.57;;;1.20;;
13951;SDS011;39535;52.192;9.886;2023-04-03T02:37:50;2.03;;;1.70;;
13951;SDS011;39535;52.192;9.886;2023-04-03T02:40:18;1.53;;;1.30;;
13951;SDS011;39535;52.192;9.886;2023-04-03T02:42:44;3.87;;;1.20;;
13951;SDS011;39535;52.192;9.886;2023-04-03T02:45:11;2.60;;;1.20;;
13951;SDS011;39535;52.192;9.886;2023-04-03T02:47:37;2.37;;;1.37;;
13951;SDS011;39535;52.192;9.886;2023-04-03T02:50:04;1.67;;;0.87;;
13951;SDS011;39535;52.192;9.886;2023-04-03T02:52:31;2.03;;;1.53;;
13951;SDS011;39535;52.192;9.886;2023-04-03T02:54:57;4.03;;;1.27;;
13951;SDS011;39535;52.192;9.886;2023-04-03T02:57:25;2.43;;;1.20;;
13951;SDS011;39535;52.192;9.886;2023-04-03T02:59:51;2.73;;;1.50;;
13951;SDS011;39535;52.192;9.886;2023-04-03T03:02:18;2.40;;;1.10;;
13951;SDS011;39535;52.192;9.886;2023-04-03T03:04:44;2.70;;;1.30;;
13951;SDS011;39535;52.192;9.886;2023-04-03T03:07:11;3.90;;;1.17;;
13951;SDS011;39535;52.192;9.886;2023-04-03T03:09:37;2.60;;;1.43;;
13951;SDS011;39535;52.192;9.886;2023-04-03T03:12:03;3.37;;;1.50;;
13951;SDS011;39535;52.192;9.886;2023-04-03T03:14:31;2.67;;;2.00;;
13951;SDS011;39535;52.192;9.886;2023-04-03T03:16:58;2.00;;;1.40;;
13951;SDS011;39535;52.192;9.886;2023-04-03T03:19:24;1.43;;;1.20;;
13951;SDS011;39535;52.192;9.886;2023-04-03T03:21:51;3.30;;;1.80;;
13951;SDS011;39535;52.192;9.886;2023-04-03T03:24:17;3.57;;;1.70;;
13951;SDS011;39535;52.192;9.886;2023-04-03T03:26:44;2.33;;;1.30;;
13951;SDS011;39535;52.192;9.886;2023-04-03T03:29:10;2.47;;;1.20;;
13951;SDS011;39535;52.192;9.886;2023-04-03T03:31:38;3.93;;;2.13;;
13951;SDS011;39535;52.192;9.886;2023-04-03T03:34:04;2.43;;;1.20;;
13951;SDS011;39535;52.192;9.886;2023-04-03T03:36:31;2.70;;;1.20;;
13951;SDS011;39535;52.192;9.886;2023-04-03T03:38:57;4.50;;;1.57;;
13951;SDS011;39535;52.192;9.886;2023-04-03T03:41:24;2.13;;;1.17;;
13951;SDS011;39535;52.192;9.886;2023-04-03T03:43:50;4.93;;;1.80;;
13951;SDS011;39535;52.192;9.886;2023-04-03T03:46:16;2.20;;;1.20;;
13951;SDS011;39535;52.192;9.886;2023-04-03T03:48:44;3.60;;;1.40;;
13951;SDS011;39535;52.192;9.886;2023-04-03T03:51:10;2.70;;;1.50;;
13951;SDS011;39535;52.192;9.886;2023-04-03T03:53:37;2.07;;;1.40;;
13951;SDS011;39535;52.192;9.886;2023-04-03T03:56:03;2.83;;;1.60;;
13951;SDS011;39535;52.192;9.886;2023-04-03T03:58:30;2.60;;;1.50;;
13951;SDS011;39535;52.192;9.886;2023-04-03T04:00:59;1.63;;;1.23;;
13951;SDS011;39535;52.192;9.886;2023-04-03T04:03:26;3.13;;;1.20;;
13951;SDS011;39535;52.192;9.886;2023-04-03T04:05:54;2.97;;;1.40;;
13951;SDS011;39535;52.192;9.886;2023-04-03T04:08:20;2.60;;;1.30;;
13951;SDS011;39535;52.192;9.886;2023-04-03T04:10:47;2.27;;;1.40;;
13951;SDS011;39535;52.192;9.886;2023-04-03T04:13:13;2.77;;;1.10;;
13951;SDS011;39535;52.192;9.886;2023-04-03T04:15:40;2.10;;;1.40;;
13951;SDS011;39535;52.192;9.886;2023-04-03T04:18:06;1.90;;;1.03;;
13951;SDS011;39535;52.192;9.886;2023-04-03T04:20:33;2.57;;;1.40;;
13951;SDS011;39535;52.192;9.886;2023-04-03T04:23:00;6.93;;;1.70;;
13951;SDS011;39535;52.192;9.886;2023-04-03T04:25:27;3.90;;;1.50;;
13951;SDS011;39535;52.192;9.886;2023-04-03T04:27:53;2.80;;;1.30;;
13951;SDS011;39535;52.192;9.886;2023-04-03T04:30:20;4.20;;;1.47;;
13951;SDS011;39535;52.192;9.886;2023-04-03T04:32:46;3.30;;;1.40;;
13951;SDS011;39535;52.192;9.886;2023-04-03T04:35:12;2.20;;;1.40;;
13951;SDS011;39535;52.192;9.886;2023-04-03T04:37:39;5.83;;;2.70;;
13951;SDS011;39535;52.192;9.886;2023-04-03T04:40:07;4.13;;;1.67;;
13951;SDS011;39535;52.192;9.886;2023-04-03T04:42:34;4.90;;;2.07;;
13951;SDS011;39535;52.192;9.886;2023-04-03T04:45:01;3.53;;;1.80;;
13951;SDS011;39535;52.192;9.886;2023-04-03T04:47:27;4.57;;;1.70;;
13951;SDS011;39535;52.192;9.886;2023-04-03T04:49:54;3.67;;;1.43;;
13951;SDS011;39535;52.192;9.886;2023-04-03T04:52:21;5.53;;;1.80;;
13951;SDS011;39535;52.192;9.886;2023-04-03T04:54:47;5.80;;;2.00;;
13951;SDS011;39535;52.192;9.886;2023-04-03T04:57:15;3.37;;;2.33;;
13951;SDS011;39535;52.192;9.886;2023-04-03T04:59:42;3.57;;;1.90;;
13951;SDS011;39535;52.192;9.886;2023-04-03T05:02:08;6.90;;;1.60;;
13951;SDS011;39535;52.192;9.886;2023-04-03T05:04:35;4.00;;;1.77;;
13951;SDS011;39535;52.192;9.886;2023-04-03T05:07:01;3.73;;;1.77;;
13951;SDS011;39535;52.192;9.886;2023-04-03T05:09:27;2.70;;;1.70;;
13951;SDS011;39535;52.192;9.886;2023-04-03T05:11:54;4.97;;;2.30;;
13951;SDS011;39535;52.192;9.886;2023-04-03T05:14:22;2.47;;;1.40;;
13951;SDS011;39535;52.192;9.886;2023-04-03T05:16:49;2.50;;;1.87;;
13951;SDS011;39535;52.192;9.886;2023-04-03T05:19:17;1.87;;;1.50;;
13951;SDS011;39535;52.192;9.886;2023-04-03T05:21:45;2.87;;;1.60;;
13951;SDS011;39535;52.192;9.886;2023-04-03T05:24:11;4.20;;;1.83;;
13951;SDS011;39535;52.192;9.886;2023-04-03T05:26:38;5.00;;;1.90;;
13951;SDS011;39535;52.192;9.886;2023-04-03T05:29:05;3.87;;;2.10;;
13951;SDS011;39535;52.192;9.886;2023-04-03T05:31:33;4.53;;;2.07;;
13951;SDS011;39535;52.192;9.886;2023-04-03T05:33:59;4.20;;;2.43;;
13951;SDS011;39535;52.192;9.886;2023-04-03T05:36:26;4.63;;;2.67;;
13951;SDS011;39535;52.192;9.886;2023-04-03T05:38:52;4.33;;;2.53;;
13951;SDS011;39535;52.192;9.886;2023-04-03T05:41:21;4.13;;;2.23;;
13951;SDS011;39535;52.192;9.886;2023-04-03T05:43:48;7.47;;;2.47;;
13951;SDS011;39535;52.192;9.886;2023-04-03T05:46:15;5.10;;;2.30;;
13951;SDS011;39535;52.192;9.886;2023-04-03T05:48:44;5.57;;;2.70;;
13951;SDS011;39535;52.192;9.886;2023-04-03T05:51:13;6.23;;;2.40;;
13951;SDS011;39535;52.192;9.886;2023-04-03T05:53:41;4.70;;;2.03;;
13951;SDS011;39535;52.192;9.886;2023-04-03T05:56:09;3.23;;;2.10;;
13951;SDS011;39535;52.192;9.886;2023-04-03T05:58:36;4.90;;;2.23;;
13951;SDS011;39535;52.192;9.886;2023-04-03T06:01:03;5.77;;;2.47;;
13951;SDS011;39535;52.192;9.886;2023-04-03T06:03:30;5.23;;;2.30;;
13951;SDS011;39535;52.192;9.886;2023-04-03T06:05:58;4.93;;;2.10;;
13951;SDS011;39535;52.192;9.886;2023-04-03T06:08:24;9.53;;;1.90;;
13951;SDS011;39535;52.192;9.886;2023-04-03T06:10:51;3.00;;;1.90;;
13951;SDS011;39535;52.192;9.886;2023-04-03T06:13:17;3.40;;;2.27;;
13951;SDS011;39535;52.192;9.886;2023-04-03T06:15:43;4.43;;;2.17;;
13951;SDS011;39535;52.192;9.886;2023-04-03T06:18:10;5.60;;;2.87;;
13951;SDS011;39535;52.192;9.886;2023-04-03T06:20:36;5.47;;;2.27;;
13951;SDS011;39535;52.192;9.886;2023-04-03T06:23:04;3.07;;;1.80;;
13951;SDS011;39535;52.192;9.886;2023-04-03T06:25:31;2.87;;;2.13;;
13951;SDS011;39535;52.192;9.886;2023-04-03T06:27:58;3.67;;;2.13;;
13951;SDS011;39535;52.192;9.886;2023-04-03T06:30:25;3.90;;;2.20;;
13951;SDS011;39535;52.192;9.886;2023-04-03T06:32:52;4.43;;;2.37;;
13951;SDS011;39535;52.192;9.886;2023-04-03T06:35:18;6.13;;;2.20;;
13951;SDS011;39535;52.192;9.886;2023-04-03T06:37:45;3.77;;;1.83;;
13951;SDS011;39535;52.192;9.886;2023-04-03T06:40:15;2.73;;;1.63;;
13951;SDS011;39535;52.192;9.886;2023-04-03T06:42:46;2.80;;;1.80;;
13951;SDS011;39535;52.192;9.886;2023-04-03T06:45:13;4.00;;;2.67;;
13951;SDS011;39535;52.192;9.886;2023-04-03T06:47:40;7.53;;;1.73;;
13951;SDS011;39535;52.192;9.886;2023-04-03T06:50:06;7.07;;;2.33;;
13951;SDS011;39535;52.192;9.886;2023-04-03T06:52:36;4.37;;;1.87;;
13951;SDS011;39535;52.192;9.886;2023-04-03T06:55:04;3.87;;;1.93;;
13951;SDS011;39535;52.192;9.886;2023-04-03T06:57:33;4.00;;;2.23;;
13951;SDS011;39535;52.192;9.886;2023-04-03T06:59:59;3.67;;;1.50;;
13951;SDS011;39535;52.192;9.886;2023-04-03T07:02:25;3.10;;;1.90;;
13951;SDS011;39535;52.192;9.886;2023-04-03T07:04:52;4.70;;;1.93;;
13951;SDS011;39535;52.192;9.886;2023-04-03T07:07:18;4.53;;;2.20;;
13951;SDS011;39535;52.192;9.886;2023-04-03T07:09:45;3.17;;;1.47;;
13951;SDS011;39535;52.192;9.886;2023-04-03T07:12:13;5.97;;;1.83;;
13951;SDS011;39535;52.192;9.886;2023-04-03T07:14:41;3.20;;;2.20;;
13951;SDS011;39535;52.192;9.886;2023-04-03T07:17:07;3.10;;;1.70;;
13951;SDS011;39535;52.192;9.886;2023-04-03T07:19:34;3.90;;;2.00;;
13951;SDS011;39535;52.192;9.886;2023-04-03T07:22:00;3.20;;;1.80;;
13951;SDS011;39535;52.192;9.886;2023-04-03T07:24:29;2.97;;;1.60;;
13951;SDS011;39535;52.192;9.886;2023-04-03T07:26:56;3.13;;;1.40;;
13951;SDS011;39535;52.192;9.886;2023-04-03T07:29:22;2.57;;;1.80;;
13951;SDS011;39535;52.192;9.886;2023-04-03T07:31:50;3.90;;;2.03;;
13951;SDS011;39535;52.192;9.886;2023-04-03T07:34:17;3.60;;;2.10;;
13951;SDS011;39535;52.192;9.886;2023-04-03T07:36:44;3.30;;;1.37;;
13951;SDS011;39535;52.192;9.886;2023-04-03T07:39:10;4.40;;;2.00;;
13951;SDS011;39535;52.192;9.886;2023-04-03T07:41:36;2.83;;;1.70;;
13951;SDS011;39535;52.192;9.886;2023-04-03T07:44:03;4.30;;;1.70;;
13951;SDS011;39535;52.192;9.886;2023-04-03T07:46:30;3.37;;;1.50;;
13951;SDS011;39535;52.192;9.886;2023-04-03T07:48:58;3.67;;;1.40;;
13951;SDS011;39535;52.192;9.886;2023-04-03T07:51:24;3.90;;;1.83;;
13951;SDS011;39535;52.192;9.886;2023-04-03T07:53:51;3.20;;;1.90;;
13951;SDS011;39535;52.192;9.886;2023-04-03T07:56:18;4.37;;;2.10;;
13951;SDS011;39535;52.192;9.886;2023-04-03T07:58:45;5.47;;;2.10;;
13951;SDS011;39535;52.192;9.886;2023-04-03T08:01:12;5.87;;;1.80;;
13951;SDS011;39535;52.192;9.886;2023-04-03T08:03:38;3.53;;;1.97;;
13951;SDS011;39535;52.192;9.886;2023-04-03T08:06:07;5.67;;;1.87;;
13951;SDS011;39535;52.192;9.886;2023-04-03T08:08:34;3.77;;;1.60;;
13951;SDS011;39535;52.192;9.886;2023-04-03T08:11:01;3.90;;;2.30;;
13951;SDS011;39535;52.192;9.886;2023-04-03T08:13:30;4.67;;;2.00;;
13951;SDS011;39535;52.192;9.886;2023-04-03T08:15:57;3.70;;;1.60;;
13951;SDS011;39535;52.192;9.886;2023-04-03T08:18:24;4.60;;;1.67;;
13951;SDS011;39535;52.192;9.886;2023-04-03T08:20:51;3.37;;;1.63;;
13951;SDS011;39535;52.192;9.886;2023-04-03T08:23:19;4.10;;;1.50;;
13951;SDS011;39535;52.192;9.886;2023-04-03T08:25:46;6.22;;;2.58;;
13951;SDS011;39535;52.192;9.886;2023-04-03T08:28:12;4.23;;;1.97;;
13951;SDS011;39535;52.192;9.886;2023-04-03T08:30:38;4.83;;;1.90;;
13951;SDS011;39535;52.192;9.886;2023-04-03T08:33:07;5.10;;;1.50;;
13951;SDS011;39535;52.192;9.886;2023-04-03T08:35:37;3.23;;;1.53;;
13951;SDS011;39535;52.192;9.886;2023-04-03T08:38:05;2.10;;;1.20;;
13951;SDS011;39535;52.192;9.886;2023-04-03T08:40:33;3.13;;;1.57;;
13951;SDS011;39535;52.192;9.886;2023-04-03T08:43:03;3.90;;;1.30;;
13951;SDS011;39535;52.192;9.886;2023-04-03T08:45:45;3.30;;;1.50;;
13951;SDS011;39535;52.192;9.886;2023-04-03T08:48:17;3.73;;;1.60;;
13951;SDS011;39535;52.192;9.886;2023-04-03T08:50:48;4.30;;;1.40;;
13951;SDS011;39535;52.192;9.886;2023-04-03T08:53:19;4.33;;;2.20;;
13951;SDS011;39535;52.192;9.886;2023-04-03T08:55:49;7.63;;;1.60;;
13951;SDS011;39535;52.192;9.886;2023-04-03T08:58:18;3.67;;;2.40;;
13951;SDS011;39535;52.192;9.886;2023-04-03T09:00:47;3.17;;;1.23;;
13951;SDS011;39535;52.192;9.886;2023-04-03T09:03:16;2.67;;;1.43;;
13951;SDS011;39535;52.192;9.886;2023-04-03T09:05:45;4.83;;;1.10;;
13951;SDS011;39535;52.192;9.886;2023-04-03T09:08:23;2.40;;;1.07;;
13951;SDS011;39535;52.192;9.886;2023-04-03T09:10:58;3.00;;;1.03;;
13951;SDS011;39535;52.192;9.886;2023-04-03T09:13:33;2.97;;;1.50;;
13951;SDS011;39535;52.192;9.886;2023-04-03T09:16:10;1.57;;;0.80;;
13951;SDS011;39535;52.192;9.886;2023-04-03T09:18:47;2.27;;;1.20;;
13951;SDS011;39535;52.192;9.886;2023-04-03T09:21:20;1.87;;;0.90;;
13951;SDS011;39535;52.192;9.886;2023-04-03T09:23:52;3.13;;;0.80;;
13951;SDS011;39535;52.192;9.886;2023-04-03T09:26:23;1.37;;;0.97;;
13951;SDS011;39535;52.192;9.886;2023-04-03T09:28:56;4.57;;;1.87;;
13951;SDS011;39535;52.192;9.886;2023-04-03T09:31:27;2.40;;;1.10;;
13951;SDS011;39535;52.192;9.886;2023-04-03T09:33:56;4.07;;;1.03;;
13951;SDS011;39535;52.192;9.886;2023-04-03T09:36:37;1.90;;;1.03;;
13951;SDS011;39535;52.192;9.886;2023-04-03T09:39:09;3.13;;;0.83;;
13951;SDS011;39535;52.192;9.886;2023-04-03T09:41:39;1.97;;;0.90;;
13951;SDS011;39535;52.192;9.886;2023-04-03T09:44:17;1.30;;;0.80;;
13951;SDS011;39535;52.192;9.886;2023-04-03T09:46:47;3.40;;;0.87;;
13951;SDS011;39535;52.192;9.886;2023-04-03T09:49:14;2.23;;;1.10;;
13951;SDS011;39535;52.192;9.886;2023-04-03T09:51:40;1.10;;;1.00;;
13951;SDS011;39535;52.192;9.886;2023-04-03T09:54:24;1.67;;;0.87;;
13951;SDS011;39535;52.192;9.886;2023-04-03T09:57:07;3.30;;;1.23;;
13951;SDS011;39535;52.192;9.886;2023-04-03T09:59:43;2.57;;;0.87;;
13951;SDS011;39535;52.192;9.886;2023-04-03T10:02:21;2.00;;;0.83;;
13951;SDS011;39535;52.192;9.886;2023-04-03T10:04:54;1.60;;;0.70;;
13951;SDS011;39535;52.192;9.886;2023-04-03T10:07:25;2.53;;;0.80;;
13951;SDS011;39535;52.192;9.886;2023-04-03T10:09:54;2.97;;;1.00;;
13951;SDS011;39535;52.192;9.886;2023-04-03T10:12:24;1.83;;;0.80;;
13951;SDS011;39535;52.192;9.886;2023-04-03T10:14:54;2.17;;;0.90;;
13951;SDS011;39535;52.192;9.886;2023-04-03T10:17:22;2.50;;;0.90;;
13951;SDS011;39535;52.192;9.886;2023-04-03T10:20:02;3.10;;;0.60;;
13951;SDS011;39535;52.192;9.886;2023-04-03T10:22:35;0.93;;;0.70;;
13951;SDS011;39535;52.192;9.886;2023-04-03T10:25:10;1.33;;;0.80;;
13951;SDS011;39535;52.192;9.886;2023-04-03T10:27:44;4.47;;;0.90;;
13951;SDS011;39535;52.192;9.886;2023-04-03T10:30:19;1.87;;;0.70;;
13951;SDS011;39535;52.192;9.886;2023-04-03T10:33:01;2.20;;;2.00;;
13951;SDS011;39535;52.192;9.886;2023-04-03T10:35:42;1.13;;;0.70;;
13951;SDS011;39535;52.192;9.886;2023-04-03T10:38:15;0.90;;;0.70;;
13951;SDS011;39535;52.192;9.886;2023-04-03T10:40:50;1.63;;;0.90;;
13951;SDS011;39535;52.192;9.886;2023-04-03T10:43:24;1.87;;;0.60;;
13951;SDS011;39535;52.192;9.886;2023-04-03T10:46:00;0.53;;;0.47;;
13951;SDS011;39535;52.192;9.886;2023-04-03T10:48:33;1.57;;;0.60;;
13951;SDS011;39535;52.192;9.886;2023-04-03T10:51:12;2.10;;;0.80;;
13951;SDS011;39535;52.192;9.886;2023-04-03T10:53:49;1.37;;;0.60;;
13951;SDS011;39535;52.192;9.886;2023-04-03T10:56:22;1.30;;;0.70;;
13951;SDS011;39535;52.192;9.886;2023-04-03T10:59:01;1.57;;;0.90;;
13951;SDS011;39535;52.192;9.886;2023-04-03T11:01:34;1.13;;;0.70;;
13951;SDS011;39535;52.192;9.886;2023-04-03T11:04:05;1.57;;;0.80;;
13951;SDS011;39535;52.192;9.886;2023-04-03T11:06:33;2.03;;;0.90;;
13951;SDS011;39535;52.192;9.886;2023-04-03T11:09:05;3.77;;;0.87;;
13951;SDS011;39535;52.192;9.886;2023-04-03T11:11:37;0.90;;;0.70;;
13951;SDS011;39535;52.192;9.886;2023-04-03T11:14:10;1.77;;;0.80;;
13951;SDS011;39535;52.192;9.886;2023-04-03T11:16:42;1.30;;;0.70;;
13951;SDS011;39535;52.192;9.886;2023-04-03T11:19:13;1.70;;;0.70;;
13951;SDS011;39535;52.192;9.886;2023-04-03T11:21:47;3.63;;;0.93;;
13951;SDS011;39535;52.192;9.886;2023-04-03T11:24:22;1.17;;;0.90;;
13951;SDS011;39535;52.192;9.886;2023-04-03T11:26:51;2.33;;;1.20;;
13951;SDS011;39535;52.192;9.886;2023-04-03T11:29:22;1.23;;;0.70;;
13951;SDS011;39535;52.192;9.886;2023-04-03T11:32:00;0.80;;;0.60;;
13951;SDS011;39535;52.192;9.886;2023-04-03T11:34:39;1.67;;;0.60;;
13951;SDS011;39535;52.192;9.886;2023-04-03T11:37:11;1.60;;;1.00;;
13951;SDS011;39535;52.192;9.886;2023-04-03T11:39:46;1.43;;;1.33;;
13951;SDS011;39535;52.192;9.886;2023-04-03T11:42:23;1.70;;;0.80;;
13951;SDS011;39535;52.192;9.886;2023-04-03T11:48:03;3.83;;;1.10;;
13951;SDS011;39535;52.192;9.886;2023-04-03T11:50:41;1.53;;;0.63;;
13951;SDS011;39535;52.192;9.886;2023-04-03T11:59:15;3.30;;;1.70;;
13951;SDS011;39535;52.192;9.886;2023-04-03T12:01:49;1.80;;;0.90;;
13951;SDS011;39535;52.192;9.886;2023-04-03T12:04:17;1.30;;;0.70;;
13951;SDS011;39535;52.192;9.886;2023-04-03T12:12:40;1.27;;;1.10;;
13951;SDS011;39535;52.192;9.886;2023-04-03T12:15:24;1.20;;;0.80;;
13951;SDS011;39535;52.192;9.886;2023-04-03T12:21:19;2.47;;;0.90;;
13951;SDS011;39535;52.192;9.886;2023-04-03T12:23:57;2.63;;;1.00;;
13951;SDS011;39535;52.192;9.886;2023-04-03T12:26:26;1.63;;;1.03;;
13951;SDS011;39535;52.192;9.886;2023-04-03T12:28:54;2.33;;;0.70;;
13951;SDS011;39535;52.192;9.886;2023-04-03T12:31:22;2.37;;;1.00;;
13951;SDS011;39535;52.192;9.886;2023-04-03T12:34:13;1.63;;;0.90;;
13951;SDS011;39535;52.192;9.886;2023-04-03T12:36:54;1.23;;;0.80;;
13951;SDS011;39535;52.192;9.886;2023-04-03T12:39:33;1.17;;;0.70;;
13951;SDS011;39535;52.192;9.886;2023-04-03T12:42:26;1.57;;;0.90;;
13951;SDS011;39535;52.192;9.886;2023-04-03T12:45:03;1.80;;;0.60;;
13951;SDS011;39535;52.192;9.886;2023-04-03T12:47:42;1.57;;;0.90;;
13951;SDS011;39535;52.192;9.886;2023-04-03T12:50:16;2.00;;;0.80;;
13951;SDS011;39535;52.192;9.886;2023-04-03T12:52:51;0.80;;;0.70;;
13951;SDS011;39535;52.192;9.886;2023-04-03T12:55:22;1.13;;;0.97;;
13951;SDS011;39535;52.192;9.886;2023-04-03T12:57:48;2.17;;;0.87;;
13951;SDS011;39535;52.192;9.886;2023-04-03T13:00:18;2.63;;;0.80;;
13951;SDS011;39535;52.192;9.886;2023-04-03T13:02:47;1.87;;;0.97;;
13951;SDS011;39535;52.192;9.886;2023-04-03T13:05:15;1.63;;;1.00;;
13951;SDS011;39535;52.192;9.886;2023-04-03T13:07:43;2.47;;;1.10;;
13951;SDS011;39535;52.192;9.886;2023-04-03T13:10:15;3.00;;;0.90;;
13951;SDS011;39535;52.192;9.886;2023-04-03T13:12:45;3.10;;;0.90;;
13951;SDS011;39535;52.192;9.886;2023-04-03T13:15:14;1.60;;;0.80;;
13951;SDS011;39535;52.192;9.886;2023-04-03T13:17:42;1.37;;;1.07;;
13951;SDS011;39535;52.192;9.886;2023-04-03T13:20:11;1.43;;;0.80;;
13951;SDS011;39535;52.192;9.886;2023-04-03T13:22:40;2.00;;;0.80;;
13951;SDS011;39535;52.192;9.886;2023-04-03T13:25:15;1.97;;;0.93;;
13951;SDS011;39535;52.192;9.886;2023-04-03T13:27:43;1.37;;;0.90;;
13951;SDS011;39535;52.192;9.886;2023-04-03T13:30:20;1.23;;;0.77;;
13951;SDS011;39535;52.192;9.886;2023-04-03T13:32:50;2.23;;;0.97;;
13951;SDS011;39535;52.192;9.886;2023-04-03T13:35:28;1.60;;;1.00;;
13951;SDS011;39535;52.192;9.886;2023-04-03T13:37:58;2.23;;;0.73;;
13951;SDS011;39535;52.192;9.886;2023-04-03T13:40:27;0.83;;;0.73;;
13951;SDS011;39535;52.192;9.886;2023-04-03T13:43:01;1.07;;;0.70;;
13951;SDS011;39535;52.192;9.886;2023-04-03T13:45:30;3.30;;;1.00;;
13951;SDS011;39535;52.192;9.886;2023-04-03T13:48:08;1.73;;;0.90;;
13951;SDS011;39535;52.192;9.886;2023-04-03T13:50:53;2.30;;;1.20;;
13951;SDS011;39535;52.192;9.886;2023-04-03T13:53:25;1.00;;;0.70;;
13951;SDS011;39535;52.192;9.886;2023-04-03T13:55:55;2.03;;;0.80;;
13951;SDS011;39535;52.192;9.886;2023-04-03T13:58:31;0.70;;;0.70;;
13951;SDS011;39535;52.192;9.886;2023-04-03T14:01:00;2.57;;;1.00;;
13951;SDS011;39535;52.192;9.886;2023-04-03T14:03:37;3.90;;;1.47;;
13951;SDS011;39535;52.192;9.886;2023-04-03T14:06:08;1.33;;;0.80;;
13951;SDS011;39535;52.192;9.886;2023-04-03T14:08:36;3.47;;;1.00;;
13951;SDS011;39535;52.192;9.886;2023-04-03T14:11:04;1.43;;;0.90;;
13951;SDS011;39535;52.192;9.886;2023-04-03T14:13:31;1.47;;;0.80;;
13951;SDS011;39535;52.192;9.886;2023-04-03T14:15:58;1.43;;;0.70;;
13951;SDS011;39535;52.192;9.886;2023-04-03T14:18:25;2.00;;;0.77;;
13951;SDS011;39535;52.192;9.886;2023-04-03T14:20:52;1.60;;;0.60;;
13951;SDS011;39535;52.192;9.886;2023-04-03T14:23:18;1.47;;;1.10;;
13951;SDS011;39535;52.192;9.886;2023-04-03T14:25:45;0.87;;;0.80;;
13951;SDS011;39535;52.192;9.886;2023-04-03T14:28:15;3.10;;;1.40;;
13951;SDS011;39535;52.192;9.886;2023-04-03T14:30:44;1.87;;;1.00;;
13951;SDS011;39535;52.192;9.886;2023-04-03T14:33:12;2.03;;;1.00;;
13951;SDS011;39535;52.192;9.886;2023-04-03T14:35:40;1.07;;;0.80;;
13951;SDS011;39535;52.192;9.886;2023-04-03T14:38:11;1.75;;;1.20;;
13951;SDS011;39535;52.192;9.886;2023-04-03T14:40:48;1.93;;;0.97;;
13951;SDS011;39535;52.192;9.886;2023-04-03T14:43:16;1.63;;;1.00;;
13951;SDS011;39535;52.192;9.886;2023-04-03T14:45:42;1.10;;;0.90;;
13951;SDS011;39535;52.192;9.886;2023-04-03T14:48:09;1.40;;;0.90;;
13951;SDS011;39535;52.192;9.886;2023-04-03T14:50:43;1.00;;;0.90;;
13951;SDS011;39535;52.192;9.886;2023-04-03T14:53:09;1.03;;;0.63;;
13951;SDS011;39535;52.192;9.886;2023-04-03T14:55:37;1.37;;;0.80;;
13951;SDS011;39535;52.192;9.886;2023-04-03T14:58:04;2.53;;;0.90;;
13951;SDS011;39535;52.192;9.886;2023-04-03T15:00:31;2.63;;;0.87;;
13951;SDS011;39535;52.192;9.886;2023-04-03T15:02:58;1.10;;;0.80;;
13951;SDS011;39535;52.192;9.886;2023-04-03T15:05:24;0.93;;;0.80;;
13951;SDS011;39535;52.192;9.886;2023-04-03T15:07:52;1.43;;;0.90;;
13951;SDS011;39535;52.192;9.886;2023-04-03T15:10:22;1.00;;;0.90;;
13951;SDS011;39535;52.192;9.886;2023-04-03T15:12:50;0.83;;;0.70;;
13951;SDS011;39535;52.192;9.886;2023-04-03T15:15:18;3.03;;;1.00;;
13951;SDS011;39535;52.192;9.886;2023-04-03T15:17:47;1.23;;;0.90;;